createdAt,value
2023-05-24T09:24:53.707Z,-23705.42
2023-05-24T09:27:22.361Z,-23711.66
2023-05-24T09:29:51.992Z,-23709.48
2023-05-24T09:32:22.248Z,-23709.22
2023-05-24T09:34:51.998Z,-23711.70
2023-05-24T09:37:27.624Z,-23715.11
2023-05-24T09:39:58.600Z,-23720.15
2023-05-24T09:42:30.553Z,-23724.94
2023-05-24T09:45:12.864Z,-23728.19
2023-05-24T09:47:41.556Z,-23731.11
2023-05-24T09:50:13.927Z,-23732.24
2023-05-24T09:52:41.999Z,-23725.68
2023-05-24T09:55:16.871Z,-23719.34
2023-05-24T09:57:45.325Z,-23713.57
2023-05-24T10:00:21.921Z,-23708.18
2023-05-24T10:03:03.888Z,-23703.32
2023-05-24T10:05:31.662Z,-23700.06
2023-05-24T10:07:59.312Z,-23700.00
2023-05-24T10:10:28.748Z,-23699.46
2023-05-24T10:12:56.837Z,-23696.54
2023-05-24T10:15:25.277Z,-23693.62
2023-05-24T10:17:53.771Z,-23691.57
2023-05-24T10:20:22.289Z,-23690.54
2023-05-24T10:22:54.977Z,-23688.52
2023-05-24T10:25:25.812Z,-23685.46
2023-05-24T10:28:01.999Z,-23681.94
2023-05-24T10:30:33.512Z,-23679.36
2023-05-24T10:33:01.558Z,-23678.68
2023-05-24T10:35:29.318Z,-23678.62
2023-05-24T10:37:57.544Z,-23678.86
2023-05-24T10:40:26.227Z,-23678.08
2023-05-24T10:42:56.391Z,-23677.98
2023-05-24T10:45:42.296Z,-23678.65
2023-05-24T10:48:15.694Z,-23677.14
2023-05-24T10:50:43.718Z,-23678.95
2023-05-24T10:53:12.758Z,-23681.77
2023-05-24T10:55:59.516Z,-23684.26
2023-05-24T10:58:33.006Z,-23686.27
2023-05-24T11:01:00.517Z,-23687.82
2023-05-24T11:03:33.195Z,-23689.39
2023-05-24T11:06:00.829Z,-23690.03
2023-05-24T11:08:35.780Z,-23691.17
2023-05-24T11:11:19.014Z,-23691.94
2023-05-24T11:13:56.127Z,-23692.21
2023-05-24T11:16:38.123Z,-23691.88
2023-05-24T11:19:22.990Z,-23690.13
2023-05-24T11:21:51.741Z,-23690.47
2023-05-24T11:24:20.116Z,-23689.93
2023-05-24T11:26:47.642Z,-23690.97
2023-05-24T11:29:17.851Z,-23694.56
2023-05-24T11:31:57.790Z,-23698.45
2023-05-24T11:34:27.480Z,-23700.73
2023-05-24T11:36:55.534Z,-23703.79
2023-05-24T11:39:23.974Z,-23704.93
2023-05-24T11:41:53.767Z,-23704.59
2023-05-24T11:44:21.578Z,-23703.99
2023-05-24T11:46:49.108Z,-23701.71
2023-05-24T11:49:17.173Z,-23698.92
2023-05-24T11:51:44.698Z,-23699.16
2023-05-24T11:54:12.209Z,-23699.86
2023-05-24T11:56:40.836Z,-23702.54
2023-05-24T11:59:15.681Z,-23707.97
2023-05-24T12:01:43.667Z,-23715.21
2023-05-24T12:04:11.954Z,-23720.79
2023-05-24T12:06:43.949Z,-23726.21
2023-05-24T12:09:13.912Z,-23726.82
2023-05-24T12:11:42.359Z,-23721.96
2023-05-24T12:14:14.280Z,-23721.49
2023-05-24T12:16:45.653Z,-23724.07
2023-05-24T12:19:31.693Z,-23726.45
2023-05-24T12:22:01.886Z,-23726.75
2023-05-24T12:24:29.540Z,-23725.38
2023-05-24T12:27:02.193Z,-23720.85
2023-05-24T12:29:34.548Z,-23718.00
2023-05-24T12:32:02.049Z,-23718.47
2023-05-24T12:34:29.445Z,-23718.47
2023-05-24T12:36:57.002Z,-23718.88
2023-05-24T12:39:32.217Z,-23720.55
2023-05-24T12:42:01.885Z,-23721.29
2023-05-24T12:44:34.755Z,-23721.15
2023-05-24T12:47:03.292Z,-23721.59
2023-05-24T12:49:31.711Z,-23721.29
2023-05-24T12:51:59.476Z,-23720.85
2023-05-24T12:54:27.963Z,-23718.81
2023-05-24T12:56:57.012Z,-23718.54
2023-05-24T12:59:26.957Z,-23720.22
2023-05-24T13:01:55.128Z,-23722.03
2023-05-24T13:04:24.533Z,-23723.94
2023-05-24T13:06:52.064Z,-23725.38
2023-05-24T13:09:21.731Z,-23725.21
2023-05-24T13:11:50.008Z,-23723.46
2023-05-24T13:14:18.320Z,-23723.93
2023-05-24T13:16:46.178Z,-23726.85
2023-05-24T13:19:13.687Z,-23728.59
2023-05-24T13:21:41.525Z,-23726.79
2023-05-24T13:24:09.220Z,-23721.42
2023-05-24T13:26:38.196Z,-23717.67
2023-05-24T13:31:41.426Z,-23713.24
2023-05-24T13:34:11.092Z,-23711.33
2023-05-24T13:36:39.030Z,-23711.20
2023-05-24T13:41:40.832Z,-23706.37
2023-05-24T13:44:08.798Z,-23702.44
2023-05-24T13:46:37.284Z,-23698.92
2023-05-24T13:49:05.344Z,-23697.68
2023-05-24T13:51:33.148Z,-23696.37
2023-05-24T13:54:01.264Z,-23694.53
2023-05-24T13:56:33.079Z,-23692.14
2023-05-24T13:59:01.686Z,-23690.63
2023-05-24T14:01:29.266Z,-23688.55
2023-05-24T14:03:56.868Z,-23686.57
2023-05-24T14:06:24.383Z,-23684.82
2023-05-24T14:08:52.514Z,-23683.21
2023-05-24T14:11:20.363Z,-23682.24
2023-05-24T14:16:18.781Z,-23681.61
2023-05-24T14:18:49.133Z,-23681.77
2023-05-24T14:21:18.332Z,-23682.64
2023-05-24T14:23:45.839Z,-23683.58
2023-05-24T14:26:13.808Z,-23684.72
2023-05-24T14:28:41.550Z,-23685.87
2023-05-24T14:31:09.053Z,-23686.04
2023-05-24T14:33:37.984Z,-23685.43
2023-05-24T14:36:05.753Z,-23685.50
2023-05-24T14:38:33.207Z,-23685.22
2023-05-24T14:41:01.739Z,-23683.95
2023-05-24T14:43:29.358Z,-23682.54
2023-05-24T14:45:56.920Z,-23682.24
2023-05-24T14:48:24.312Z,-23681.40
2023-05-24T14:50:52.426Z,-23681.34
2023-05-24T14:53:19.867Z,-23681.40
2023-05-24T14:55:47.389Z,-23680.97
2023-05-24T14:58:15.096Z,-23680.29
2023-05-24T15:00:43.277Z,-23679.43
2023-05-24T15:03:12.912Z,-23678.02
2023-05-24T15:05:42.691Z,-23676.20
2023-05-24T15:08:11.502Z,-23675.53
2023-05-24T15:10:39.649Z,-23674.49
2023-05-24T15:13:07.216Z,-23673.41
2023-05-24T15:15:34.719Z,-23672.71
2023-05-24T15:18:02.236Z,-23672.07
2023-05-24T15:20:30.551Z,-23671.63
2023-05-24T15:22:58.013Z,-23670.72
2023-05-24T15:25:25.531Z,-23669.89
2023-05-24T15:27:52.995Z,-23668.58
2023-05-24T15:30:20.846Z,-23667.84
2023-05-24T15:32:48.321Z,-23666.80
2023-05-24T15:35:16.894Z,-23665.59
2023-05-24T15:37:44.389Z,-23664.12
2023-05-24T15:40:12.876Z,-23662.10
2023-05-24T15:42:40.388Z,-23661.00
2023-05-24T15:45:08.442Z,-23660.63
2023-05-24T15:47:39.914Z,-23660.69
2023-05-24T15:50:09.027Z,-23659.82
2023-05-24T15:52:36.622Z,-23659.35
2023-05-24T15:55:04.599Z,-23657.54
2023-05-24T15:57:32.220Z,-23655.45
2023-05-24T15:59:59.852Z,-23654.14
2023-05-24T16:02:27.573Z,-23653.21
2023-05-24T16:04:57.383Z,-23653.88
2023-05-24T16:07:24.947Z,-23653.00
2023-05-24T16:09:52.505Z,-23652.06
2023-05-24T16:12:22.373Z,-23651.66
2023-05-24T16:14:49.923Z,-23650.28
2023-05-24T16:17:17.621Z,-23649.00
2023-05-24T16:19:49.661Z,-23647.72
2023-05-24T16:22:17.278Z,-23645.84
2023-05-24T16:24:44.938Z,-23644.40
2023-05-24T16:27:12.457Z,-23643.86
2023-05-24T16:29:40.000Z,-23642.89
2023-05-24T16:32:08.673Z,-23641.31
2023-05-24T16:34:51.963Z,-23639.23
2023-05-24T16:37:22.910Z,-23637.55
2023-05-24T16:39:50.540Z,-23636.71
2023-05-24T16:42:18.185Z,-23635.30
2023-05-24T16:44:45.651Z,-23633.69
2023-05-24T16:47:13.123Z,-23632.07
2023-05-24T16:49:40.673Z,-23630.33
2023-05-24T16:52:08.895Z,-23628.28
2023-05-24T16:54:36.477Z,-23625.28
2023-05-24T16:57:04.070Z,-23622.86
2023-05-24T16:59:31.698Z,-23620.17
2023-05-24T17:01:59.523Z,-23617.38
2023-05-24T17:04:26.928Z,-23615.47
2023-05-24T17:06:54.344Z,-23613.62
2023-05-24T17:09:21.763Z,-23611.87
2023-05-24T17:11:50.838Z,-23609.82
2023-05-24T17:14:18.583Z,-23609.38
2023-05-24T17:16:46.219Z,-23608.31
2023-05-24T17:19:14.173Z,-23606.63
2023-05-24T17:21:42.132Z,-23604.84
2023-05-24T17:24:09.763Z,-23602.32
2023-05-24T17:26:39.111Z,-23599.69
2023-05-24T17:29:06.669Z,-23596.90
2023-05-24T17:31:34.499Z,-23594.34
2023-05-24T17:34:02.243Z,-23591.65
2023-05-24T17:36:33.522Z,-23587.92
2023-05-24T17:39:01.096Z,-23584.62
2023-05-24T17:41:28.477Z,-23582.00
2023-05-24T17:43:55.979Z,-23579.44
2023-05-24T17:46:23.661Z,-23577.28
2023-05-24T17:48:52.091Z,-23575.36
2023-05-24T17:51:19.741Z,-23572.67
2023-05-24T17:53:47.699Z,-23570.58
2023-05-24T17:59:45.647Z,-23565.17
2023-05-24T18:02:13.073Z,-23562.34
2023-05-24T18:04:41.614Z,-23559.68
2023-05-24T18:07:09.108Z,-23557.39
2023-05-24T18:09:36.687Z,-23555.04
2023-05-24T18:12:07.076Z,-23552.88
2023-05-24T18:14:38.797Z,-23551.09
2023-05-24T18:20:43.901Z,-23546.44
2023-05-24T18:23:11.921Z,-23544.09
2023-05-24T18:25:39.387Z,-23540.72
2023-05-24T18:28:07.421Z,-23538.63
2023-05-24T18:30:34.925Z,-23537.18
2023-05-24T18:33:07.614Z,-23535.03
2023-05-24T18:35:35.905Z,-23533.44
2023-05-24T18:38:04.621Z,-23532.20
2023-05-24T18:40:32.215Z,-23531.83
2023-05-24T18:42:59.728Z,-23531.12
2023-05-24T18:45:27.204Z,-23529.20
2023-05-24T18:47:54.663Z,-23526.97
2023-05-24T18:53:44.598Z,-23520.91
2023-05-24T18:56:12.181Z,-23517.67
2023-05-24T18:58:40.045Z,-23516.26
2023-05-24T19:01:09.745Z,-23515.04
2023-05-24T19:04:14.876Z,-23513.76
2023-05-24T19:06:45.744Z,-23512.61
2023-05-24T19:09:15.049Z,-23512.64
2023-05-24T19:11:45.598Z,-23511.90
2023-05-24T19:14:14.909Z,-23510.93
2023-05-24T19:16:45.281Z,-23511.03
2023-05-24T19:19:29.855Z,-23509.44
2023-05-24T19:22:00.744Z,-23507.69
2023-05-24T19:25:13.526Z,-23505.20
2023-05-24T19:28:19.170Z,-23501.69
2023-05-24T19:30:46.664Z,-23498.68
2023-05-24T19:36:32.964Z,-23494.27
2023-05-24T19:39:15.063Z,-23492.82
2023-05-24T19:41:42.555Z,-23492.28
2023-05-24T19:44:09.932Z,-23491.67
2023-05-24T19:47:04.937Z,-23491.13
2023-05-24T19:49:32.507Z,-23490.69
2023-05-24T19:51:59.940Z,-23489.58
2023-05-24T19:54:27.446Z,-23487.18
2023-05-24T19:56:56.050Z,-23484.55
2023-05-24T19:59:26.000Z,-23482.29
2023-05-24T20:01:53.816Z,-23480.24
2023-05-24T20:04:21.293Z,-23479.06
2023-05-24T20:06:48.852Z,-23477.74
2023-05-24T20:09:18.829Z,-23476.76
2023-05-24T20:11:46.555Z,-23474.81
2023-05-24T20:14:13.963Z,-23472.41
2023-05-24T20:16:42.103Z,-23469.20
2023-05-24T20:19:11.866Z,-23467.75
2023-05-24T20:21:39.377Z,-23468.02
2023-05-24T20:24:06.834Z,-23468.22
2023-05-24T20:26:35.176Z,-23466.47
2023-05-24T20:29:02.688Z,-23463.94
2023-05-24T20:31:30.108Z,-23463.70
2023-05-24T20:33:57.595Z,-23463.87
2023-05-24T20:36:25.071Z,-23463.46
2023-05-24T20:38:52.547Z,-23461.95
2023-05-24T20:41:19.987Z,-23460.09
2023-05-24T20:43:47.509Z,-23459.42
2023-05-24T20:46:15.082Z,-23458.94
2023-05-24T20:48:43.437Z,-23457.96
2023-05-24T20:51:11.170Z,-23456.11
2023-05-24T20:53:39.244Z,-23454.32
2023-05-24T20:56:07.030Z,-23453.07
2023-05-24T20:58:34.879Z,-23451.82
2023-05-24T21:01:02.326Z,-23450.68
2023-05-24T21:03:30.103Z,-23449.02
2023-05-24T21:05:58.024Z,-23447.97
2023-05-24T21:08:25.736Z,-23448.62
2023-05-24T21:10:55.978Z,-23449.26
2023-05-24T21:13:25.531Z,-23448.99
2023-05-24T21:15:55.120Z,-23448.14
2023-05-24T21:18:22.551Z,-23445.95
2023-05-24T21:20:50.413Z,-23444.19
2023-05-24T21:23:19.341Z,-23442.00
2023-05-24T21:25:46.790Z,-23441.43
2023-05-24T21:28:14.270Z,-23440.65
2023-05-24T21:30:41.790Z,-23440.44
2023-05-24T21:33:09.258Z,-23439.97
2023-05-24T21:35:37.326Z,-23439.32
2023-05-24T21:38:04.762Z,-23439.76
2023-05-24T21:40:32.334Z,-23439.73
2023-05-24T21:42:59.793Z,-23438.79
2023-05-24T21:45:27.286Z,-23434.87
2023-05-24T21:47:54.835Z,-23432.17
2023-05-24T21:50:23.202Z,-23431.05
2023-05-24T21:52:50.656Z,-23429.67
2023-05-24T21:55:18.210Z,-23428.38
2023-05-24T21:57:45.761Z,-23427.88
2023-05-24T22:01:01.283Z,-23426.73
2023-05-24T22:03:43.157Z,-23425.68
2023-05-24T22:06:10.799Z,-23425.34
2023-05-24T22:08:38.285Z,-23424.77
2023-05-24T22:11:05.805Z,-23422.84
2023-05-24T22:13:33.243Z,-23420.75
2023-05-24T22:16:00.875Z,-23419.19
2023-05-24T22:18:28.479Z,-23416.12
2023-05-24T22:20:58.363Z,-23415.17
2023-05-24T22:23:26.470Z,-23413.72
2023-05-24T22:25:53.996Z,-23412.06
2023-05-24T22:28:21.442Z,-23410.85
2023-05-24T22:30:48.894Z,-23410.31
2023-05-24T22:33:16.545Z,-23407.84
2023-05-24T22:35:44.202Z,-23404.63
2023-05-24T22:38:11.864Z,-23404.05
2023-05-24T22:40:42.277Z,-23404.59
2023-05-24T22:43:09.820Z,-23405.78
2023-05-24T22:45:37.244Z,-23406.25
2023-05-24T22:48:04.697Z,-23406.89
2023-05-24T22:50:32.381Z,-23405.71
2023-05-24T22:52:59.809Z,-23404.56
2023-05-24T22:55:27.237Z,-23403.38
2023-05-24T22:57:54.665Z,-23403.71
2023-05-24T23:00:22.094Z,-23405.50
2023-05-24T23:02:49.697Z,-23406.01
2023-05-24T23:05:17.298Z,-23404.32
2023-05-24T23:07:46.133Z,-23404.25
2023-05-24T23:10:13.633Z,-23405.10
2023-05-24T23:12:42.477Z,-23406.75
2023-05-24T23:15:11.574Z,-23407.63
2023-05-24T23:17:39.127Z,-23408.38
2023-05-24T23:20:10.075Z,-23409.26
2023-05-24T23:22:37.755Z,-23410.88
2023-05-24T23:25:05.663Z,-23409.77
2023-05-24T23:27:33.044Z,-23409.12
2023-05-24T23:30:00.841Z,-23410.34
2023-05-24T23:32:28.425Z,-23408.21
2023-05-24T23:34:56.039Z,-23405.47
2023-05-24T23:37:23.528Z,-23403.58
2023-05-24T23:39:51.246Z,-23402.73
2023-05-24T23:42:18.703Z,-23401.45
2023-05-24T23:44:46.128Z,-23398.44
2023-05-24T23:47:13.638Z,-23396.18
2023-05-24T23:49:41.319Z,-23394.52
2023-05-24T23:52:08.794Z,-23391.98
2023-05-24T23:54:36.227Z,-23390.74
2023-05-24T23:57:04.168Z,-23390.80
2023-05-24T23:59:31.691Z,-23389.18
